Time;durP1;ratioP1;P1;durP2;ratioP2;P2;SDS_P1;SDS_P2;PMS_P1;PMS_P2;Temp;Humidity;BMP_temperature;BMP_pressure;BME280_temperature;BME280_humidity;BME280_pressure;Samples;Min_cycle;Max_cycle;Signal;HPM_P1;HPM_P2
2022/11/12 00:00:51;;;;;;;26.33;15.27;;;23.80;47.80;;;;;;7709542;22;86080;-58
2022/11/12 00:04:10;;;;;;;24.48;14.18;;;23.80;47.60;;;;;;7714731;22;82635;-58
2022/11/12 00:07:29;;;;;;;23.95;13.82;;;23.80;47.60;;;;;;7709227;22;82754;-58
2022/11/12 00:10:48;;;;;;;22.90;13.82;;;23.80;47.70;;;;;;7713024;22;83331;-59
2022/11/12 00:14:07;;;;;;;21.42;13.88;;;23.80;47.70;;;;;;7711514;22;82590;-58
2022/11/12 00:17:26;;;;;;;19.08;13.20;;;23.80;47.70;;;;;;7712274;22;84016;-58
2022/11/12 00:20:45;;;;;;;25.45;13.80;;;23.80;48.00;;;;;;7713298;22;83044;-57
2022/11/12 00:24:04;;;;;;;23.02;13.65;;;23.80;47.70;;;;;;7713075;22;83088;-58
2022/11/12 00:27:23;;;;;;;22.60;14.18;;;23.80;47.80;;;;;;7711762;22;83969;-58
2022/11/12 00:30:42;;;;;;;21.77;13.25;;;23.80;47.70;;;;;;7711037;22;83377;-58
2022/11/12 00:34:01;;;;;;;24.38;13.48;;;23.70;47.70;;;;;;7711086;22;86874;-59
2022/11/12 00:37:22;;;;;;;25.42;14.02;;;23.70;47.70;;;;;;7712223;22;82990;-60
2022/11/12 00:40:41;;;;;;;27.40;14.32;;;23.70;47.70;;;;;;7712693;22;84184;-60
2022/11/12 00:44:00;;;;;;;19.17;12.55;;;23.70;47.80;;;;;;7709342;22;84789;-60
2022/11/12 00:47:20;;;;;;;21.02;13.18;;;23.70;47.80;;;;;;7711968;22;83125;-60
2022/11/12 00:50:38;;;;;;;20.17;13.23;;;23.70;47.80;;;;;;7712761;22;82797;-60
2022/11/12 00:53:57;;;;;;;23.15;13.27;;;23.70;47.80;;;;;;7708852;22;83297;-63
2022/11/12 00:57:17;;;;;;;20.27;13.15;;;23.70;47.80;;;;;;7712707;22;83605;-62
2022/11/12 01:00:36;;;;;;;18.60;12.70;;;23.70;47.80;;;;;;7711770;22;83287;-63
2022/11/12 01:03:55;;;;;;;20.58;11.77;;;23.70;47.80;;;;;;7710513;22;87446;-61
2022/11/12 01:07:14;;;;;;;21.58;13.00;;;23.70;47.70;;;;;;7712878;22;82821;-62
2022/11/12 01:10:33;;;;;;;24.40;12.43;;;23.70;47.80;;;;;;7712771;22;83317;-61
2022/11/12 01:13:52;;;;;;;19.38;11.38;;;23.70;47.80;;;;;;7712747;22;82999;-61
2022/11/12 01:17:11;;;;;;;23.80;12.52;;;23.70;47.80;;;;;;7712367;22;82605;-61
2022/11/12 01:20:30;;;;;;;17.23;10.73;;;23.70;47.70;;;;;;7710766;22;83367;-63
2022/11/12 01:23:49;;;;;;;17.33;11.13;;;23.70;47.80;;;;;;7711834;22;83147;-62
2022/11/12 01:27:08;;;;;;;16.27;10.88;;;23.70;47.80;;;;;;7712459;22;83388;-62
2022/11/12 01:30:27;;;;;;;17.27;11.35;;;23.70;47.70;;;;;;7709616;22;83130;-61
2022/11/12 01:33:46;;;;;;;17.88;10.75;;;23.70;47.60;;;;;;7711826;22;87121;-62
2022/11/12 01:37:06;;;;;;;20.45;11.93;;;23.70;47.50;;;;;;7711852;22;84000;-61
2022/11/12 01:40:25;;;;;;;18.58;10.20;;;23.70;47.50;;;;;;7713247;22;82934;-61
2022/11/12 01:43:44;;;;;;;17.65;10.68;;;23.70;47.50;;;;;;7710223;22;83859;-62
2022/11/12 01:47:02;;;;;;;18.65;10.75;;;23.70;47.50;;;;;;7711140;22;82820;-61
2022/11/12 01:50:21;;;;;;;17.13;10.15;;;23.70;47.50;;;;;;7713305;22;82558;-60
2022/11/12 01:53:40;;;;;;;16.00;9.80;;;23.70;47.60;;;;;;7711819;22;82656;-60
2022/11/12 01:56:59;;;;;;;17.70;10.93;;;23.60;47.50;;;;;;7715524;22;81659;-59
2022/11/12 02:00:18;;;;;;;16.70;9.93;;;23.70;47.60;;;;;;7713212;22;83221;-59
2022/11/12 02:03:38;;;;;;;18.75;10.40;;;23.70;47.70;;;;;;7711553;22;82485;-60
2022/11/12 02:06:57;;;;;;;16.75;10.32;;;23.70;47.50;;;;;;7709601;22;84952;-60
2022/11/12 02:10:16;;;;;;;18.60;10.52;;;23.70;47.50;;;;;;7713289;22;83915;-60
2022/11/12 02:17:13;;;;;;;17.60;10.00;;;23.60;47.50;;;;;;7713706;22;83284;-58
2022/11/12 02:20:32;;;;;;;15.95;10.02;;;23.60;47.50;;;;;;7710408;22;84783;-59
2022/11/12 02:23:51;;;;;;;17.63;10.85;;;23.60;47.50;;;;;;7709873;22;84037;-59
2022/11/12 02:27:10;;;;;;;16.45;9.93;;;23.60;47.50;;;;;;7711887;22;83617;-59
2022/11/12 02:30:29;;;;;;;16.75;9.80;;;23.60;47.50;;;;;;7715356;22;81614;-58
2022/11/12 02:33:48;;;;;;;16.40;9.15;;;23.60;47.50;;;;;;7713433;22;83502;-59
2022/11/12 02:37:07;;;;;;;18.40;9.80;;;23.60;47.60;;;;;;7714248;22;81395;-59
2022/11/12 02:40:26;;;;;;;16.70;9.60;;;23.60;47.50;;;;;;7710163;22;80073;-59
2022/11/12 02:43:44;;;;;;;15.98;9.35;;;23.60;47.50;;;;;;7710896;22;80863;-60
2022/11/12 02:47:03;;;;;;;15.80;9.68;;;23.60;47.70;;;;;;7715893;22;80536;-60
2022/11/12 02:50:22;;;;;;;13.93;9.13;;;23.60;47.60;;;;;;7717173;22;80264;-61
2022/11/12 02:53:41;;;;;;;16.83;9.98;;;23.60;47.70;;;;;;7715066;22;80605;-61
2022/11/12 02:57:00;;;;;;;14.93;9.05;;;23.60;47.70;;;;;;7711682;22;82722;-60
2022/11/12 03:00:19;;;;;;;15.43;9.05;;;23.60;47.60;;;;;;7714643;22;84175;-61
2022/11/12 03:03:38;;;;;;;14.93;8.82;;;23.60;47.60;;;;;;7718247;22;81123;-62
2022/11/12 03:06:57;;;;;;;14.88;9.25;;;23.60;47.50;;;;;;7715120;22;84927;-63
2022/11/12 03:10:16;;;;;;;14.55;8.77;;;23.60;47.60;;;;;;7715099;22;80493;-63
2022/11/12 03:13:35;;;;;;;12.98;8.45;;;23.60;47.80;;;;;;7714568;22;80504;-73
2022/11/12 03:16:54;;;;;;;15.60;9.02;;;23.60;48.20;;;;;;7717232;22;80882;-60
2022/11/12 03:20:13;;;;;;;15.60;8.80;;;23.60;48.10;;;;;;7717592;22;80219;-62
2022/11/12 03:23:32;;;;;;;14.73;9.35;;;23.60;48.50;;;;;;7717209;22;79888;-62
2022/11/12 03:26:51;;;;;;;12.82;7.85;;;23.60;48.50;;;;;;7715460;22;80687;-61
2022/11/12 03:30:10;;;;;;;13.43;8.55;;;23.60;48.60;;;;;;7718129;22;80325;-61
2022/11/12 03:33:29;;;;;;;13.35;8.38;;;23.60;48.40;;;;;;7716987;22;81168;-61
2022/11/12 03:36:48;;;;;;;13.52;8.52;;;23.60;48.40;;;;;;7714078;22;84537;-61
2022/11/12 03:40:07;;;;;;;13.85;9.10;;;23.60;48.50;;;;;;7715842;22;80587;-62
2022/11/12 03:43:26;;;;;;;14.25;8.85;;;23.60;48.40;;;;;;7714653;22;80034;-62
2022/11/12 03:46:45;;;;;;;12.80;8.10;;;23.60;48.50;;;;;;7715364;22;80371;-62
2022/11/12 03:50:05;;;;;;;16.60;9.00;;;23.60;48.60;;;;;;7716358;22;81638;-62
2022/11/12 03:53:24;;;;;;;15.27;8.55;;;23.60;48.40;;;;;;7718983;22;79903;-61
2022/11/12 03:56:43;;;;;;;15.18;8.20;;;23.60;48.30;;;;;;7714723;22;82209;-61
2022/11/12 04:00:02;;;;;;;15.60;8.73;;;23.60;48.20;;;;;;7717263;22;80469;-61
2022/11/12 04:03:21;;;;;;;15.27;9.23;;;23.60;48.40;;;;;;7718954;22;81578;-61
2022/11/12 04:10:18;;;;;;;15.45;9.13;;;23.60;48.20;;;;;;7715409;22;83626;-60
2022/11/12 04:13:37;;;;;;;14.25;8.98;;;23.60;48.20;;;;;;7716588;22;80254;-60
2022/11/12 04:26:21;;;;;;;12.30;8.48;;;23.60;48.10;;;;;;7715382;22;80039;-62
2022/11/12 04:27:51;;;;;;;14.77;8.90;;;23.60;48.10;;;;;;7715748;22;85349;-62
2022/11/12 04:31:10;;;;;;;12.73;8.65;;;23.70;48.00;;;;;;7713815;22;80505;-60
2022/11/12 04:34:29;;;;;;;13.98;7.97;;;23.70;48.00;;;;;;7717694;22;80526;-60
2022/11/12 04:37:48;;;;;;;12.98;8.85;;;23.70;48.10;;;;;;7715054;22;87322;-62
2022/11/12 04:45:04;;;;;;;12.68;7.53;;;23.80;48.10;;;;;;7717116;22;79942;-61
2022/11/12 04:48:22;;;;;;;12.63;8.27;;;23.80;48.20;;;;;;7712238;22;80361;-61
2022/11/12 04:55:19;;;;;;;13.07;8.48;;;23.90;48.60;;;;;;7715617;22;84455;-62
2022/11/12 04:58:38;;;;;;;12.20;7.53;;;23.90;48.80;;;;;;7714133;22;80283;-61
2022/11/12 05:01:57;;;;;;;13.80;8.02;;;23.90;48.70;;;;;;7715501;22;80551;-61
2022/11/12 05:05:16;;;;;;;13.05;7.60;;;23.90;48.80;;;;;;7715595;22;80431;-61
2022/11/12 05:08:35;;;;;;;13.15;7.32;;;24.00;49.10;;;;;;7715145;22;80232;-61
2022/11/12 05:11:54;;;;;;;10.57;7.45;;;24.00;49.20;;;;;;7716869;22;80886;-59
2022/11/12 05:15:13;;;;;;;20.85;8.32;;;24.00;49.20;;;;;;7713588;22;80012;-60
2022/11/12 05:18:32;;;;;;;12.18;7.55;;;24.00;49.20;;;;;;7715711;22;80523;-60
2022/11/12 05:22:06;;;;;;;12.38;7.57;;;24.00;49.30;;;;;;7714388;22;84558;-60
2022/11/12 05:25:26;;;;;;;13.57;7.22;;;24.00;49.30;;;;;;7715621;22;80615;-60
2022/11/12 05:28:45;;;;;;;11.13;7.60;;;24.10;49.20;;;;;;7717094;22;80238;-59
2022/11/12 05:32:03;;;;;;;11.40;7.05;;;24.00;49.10;;;;;;7712779;22;81741;-61
2022/11/12 05:35:23;;;;;;;11.88;7.25;;;24.00;49.30;;;;;;7707199;22;81719;-61
2022/11/12 05:38:42;;;;;;;11.85;8.18;;;24.10;49.20;;;;;;7712166;22;80332;-59
2022/11/12 05:42:01;;;;;;;16.17;8.32;;;24.10;49.00;;;;;;7715441;22;80603;-58
2022/11/12 05:45:19;;;;;;;13.85;8.68;;;24.00;48.80;;;;;;7713954;22;81057;-59
2022/11/12 05:48:38;;;;;;;12.95;8.25;;;24.00;48.70;;;;;;7714575;22;80379;-59
2022/11/12 05:51:57;;;;;;;15.90;9.07;;;24.00;48.40;;;;;;7715173;22;83465;-60
2022/11/12 05:55:16;;;;;;;14.13;8.27;;;23.90;48.50;;;;;;7713645;22;80309;-59
2022/11/12 05:58:35;;;;;;;16.15;8.50;;;23.90;48.30;;;;;;7714992;22;81240;-60
2022/11/12 06:01:54;;;;;;;16.50;8.52;;;23.90;48.20;;;;;;7715540;22;80741;-59
2022/11/12 06:05:13;;;;;;;17.00;8.43;;;23.90;48.30;;;;;;7716414;22;80233;-60
2022/11/12 06:08:32;;;;;;;24.67;8.27;;;23.90;48.20;;;;;;7714513;22;80618;-62
2022/11/12 06:11:51;;;;;;;13.50;8.82;;;23.90;48.30;;;;;;7709528;22;80551;-58
2022/11/12 06:15:10;;;;;;;14.43;9.00;;;23.90;48.10;;;;;;7713400;22;81862;-61
2022/11/12 06:18:29;;;;;;;16.35;9.13;;;23.90;48.10;;;;;;7715859;22;81112;-62
2022/11/12 06:21:48;;;;;;;17.77;8.60;;;23.90;48.30;;;;;;7713207;22;85266;-60
2022/11/12 06:25:07;;;;;;;15.65;9.45;;;24.00;49.00;;;;;;7710792;22;80613;-59
2022/11/12 06:28:26;;;;;;;17.95;9.23;;;24.00;48.10;;;;;;7710572;22;80056;-60
2022/11/12 06:31:46;;;;;;;14.50;8.55;;;24.00;48.00;;;;;;7715425;22;80432;-60
2022/11/12 06:35:04;;;;;;;17.90;9.90;;;24.00;48.10;;;;;;7716088;22;80187;-59
2022/11/12 06:38:23;;;;;;;14.85;9.02;;;24.10;48.30;;;;;;7717877;22;80192;-56
2022/11/12 06:41:43;;;;;;;13.90;8.88;;;24.10;48.30;;;;;;7712826;22;80176;-59
2022/11/12 06:45:01;;;;;;;13.55;8.25;;;24.10;48.40;;;;;;7710256;22;80072;-57
2022/11/12 06:48:20;;;;;;;16.50;9.95;;;24.20;48.80;;;;;;7711549;22;80034;-57
2022/11/12 06:51:40;;;;;;;21.05;11.15;;;24.30;48.90;;;;;;7709990;22;80936;-57
2022/11/12 06:54:59;;;;;;;28.48;12.32;;;24.30;48.60;;;;;;7706983;22;83506;-58
2022/11/12 06:58:18;;;;;;;40.38;18.13;;;24.30;48.40;;;;;;7708196;22;84142;-59
2022/11/12 07:01:37;;;;;;;40.17;17.75;;;24.40;48.00;;;;;;7700687;22;83443;-63
2022/11/12 07:04:56;;;;;;;40.80;17.70;;;24.30;47.60;;;;;;7696993;22;84191;-63
2022/11/12 07:08:15;;;;;;;37.78;16.88;;;24.40;48.00;;;;;;7708653;22;82562;-65
2022/11/12 07:11:34;;;;;;;31.42;15.70;;;24.40;48.00;;;;;;7714598;22;82942;-64
2022/11/12 07:14:54;;;;;;;31.00;15.05;;;24.40;48.00;;;;;;7702714;22;83955;-64
2022/11/12 07:18:12;;;;;;;32.35;15.18;;;24.40;48.30;;;;;;7704867;22;83228;-64
2022/11/12 07:21:31;;;;;;;31.08;14.80;;;24.40;48.40;;;;;;7701240;22;83035;-59
2022/11/12 07:24:50;;;;;;;30.95;13.52;;;24.40;48.70;;;;;;7692411;22;87812;-60
2022/11/12 07:28:10;;;;;;;31.10;13.15;;;24.40;48.60;;;;;;7697785;22;83154;-59
2022/11/12 07:31:29;;;;;;;29.77;12.70;;;24.40;48.70;;;;;;7706580;22;83387;-60
2022/11/12 07:34:49;;;;;;;21.50;12.70;;;24.40;48.80;;;;;;7706123;22;83079;-60
2022/11/12 07:38:08;;;;;;;23.27;11.38;;;24.40;49.50;;;;;;7705756;22;83101;-61
2022/11/12 07:41:26;;;;;;;24.65;12.63;;;24.40;49.20;;;;;;7707463;22;83596;-60
2022/11/12 07:44:45;;;;;;;17.20;10.88;;;24.40;48.60;;;;;;7705750;22;82978;-59
2022/11/12 07:48:04;;;;;;;22.85;11.82;;;24.40;48.80;;;;;;7710190;22;82987;-60
2022/11/12 07:51:23;;;;;;;21.35;11.95;;;24.40;48.60;;;;;;7708671;22;82509;-60
2022/11/12 07:54:43;;;;;;;18.98;11.38;;;24.40;49.00;;;;;;7708749;22;82710;-60
2022/11/12 07:58:01;;;;;;;26.52;14.82;;;24.50;48.60;;;;;;7699997;22;87107;-60
2022/11/12 08:01:21;;;;;;;85.60;47.90;;;24.50;48.20;;;;;;7713670;22;82732;-60
2022/11/12 08:04:40;;;;;;;173.93;92.60;;;24.50;48.20;;;;;;7706695;22;83143;-63
2022/11/12 08:07:59;;;;;;;203.63;112.13;;;24.60;48.60;;;;;;7707273;22;83997;-59
2022/11/12 08:11:18;;;;;;;254.38;135.00;;;24.70;48.70;;;;;;7699703;22;87118;-58
2022/11/12 08:14:37;;;;;;;252.30;124.80;;;24.70;48.90;;;;;;7709111;22;86163;-64
2022/11/12 08:17:56;;;;;;;196.77;104.63;;;24.70;49.00;;;;;;7710451;22;85519;-66
2022/11/12 08:21:15;;;;;;;172.73;88.22;;;24.80;48.80;;;;;;7711020;22;85030;-61
2022/11/12 08:24:34;;;;;;;197.52;100.93;;;24.90;48.90;;;;;;7705683;22;84842;-63
2022/11/12 08:27:53;;;;;;;266.90;134.50;;;24.90;48.90;;;;;;7698194;22;86524;-61
2022/11/12 08:31:12;;;;;;;271.67;133.95;;;25.00;48.90;;;;;;7707011;22;86967;-59
2022/11/12 08:34:31;;;;;;;233.88;121.70;;;25.00;48.80;;;;;;7709315;22;85542;-69
2022/11/12 08:37:50;;;;;;;250.43;126.20;;;25.10;49.20;;;;;;7706319;22;86544;-65
2022/11/12 08:41:09;;;;;;;451.45;227.32;;;25.10;48.80;;;;;;7689714;22;86438;-68
2022/11/12 08:44:28;;;;;;;355.63;178.77;;;25.20;49.00;;;;;;7700773;22;85377;-64
2022/11/12 08:47:47;;;;;;;262.85;131.38;;;25.20;49.10;;;;;;7703991;22;86251;-62
2022/11/12 08:51:06;;;;;;;240.02;119.78;;;25.20;48.90;;;;;;7700717;22;85442;-59
2022/11/12 08:54:25;;;;;;;218.50;108.80;;;25.30;49.70;;;;;;7686270;22;86377;-59
2022/11/12 08:57:44;;;;;;;209.30;103.38;;;25.30;50.00;;;;;;7690975;22;89288;-61
2022/11/12 09:01:03;;;;;;;193.20;97.43;;;25.30;50.20;;;;;;7693919;22;86320;-59
2022/11/12 09:04:22;;;;;;;178.70;89.93;;;25.30;50.30;;;;;;7695467;22;83985;-60
2022/11/12 09:07:41;;;;;;;160.32;86.13;;;25.30;49.80;;;;;;7697521;22;84782;-59
2022/11/12 09:11:00;;;;;;;154.38;78.97;;;25.30;49.90;;;;;;7704989;22;82999;-63
2022/11/12 09:14:19;;;;;;;151.82;77.88;;;25.30;49.80;;;;;;7708544;22;83068;-62
2022/11/12 09:17:38;;;;;;;147.43;79.40;;;25.30;50.00;;;;;;7707022;22;83046;-62
2022/11/12 09:20:57;;;;;;;136.02;72.65;;;25.40;50.10;;;;;;7706752;22;83625;-62
2022/11/12 09:24:16;;;;;;;139.35;72.45;;;25.50;50.00;;;;;;7698997;22;83934;-60
2022/11/12 09:27:35;;;;;;;127.50;66.22;;;25.50;50.10;;;;;;7707256;22;82895;-59
2022/11/12 09:30:54;;;;;;;130.05;65.20;;;25.60;50.00;;;;;;7703868;22;86763;-59
2022/11/12 09:34:13;;;;;;;112.03;57.67;;;25.70;50.10;;;;;;7706313;22;83004;-60
2022/11/12 09:37:32;;;;;;;110.95;56.10;;;25.80;50.20;;;;;;7704924;22;83889;-57
2022/11/12 09:40:51;;;;;;;100.05;52.83;;;25.80;50.20;;;;;;7704514;22;82694;-59
2022/11/12 09:44:10;;;;;;;97.95;51.40;;;25.90;50.10;;;;;;7707570;22;83962;-56
2022/11/12 09:47:29;;;;;;;91.97;48.20;;;25.90;49.90;;;;;;7707155;22;83099;-58
2022/11/12 09:50:48;;;;;;;83.45;44.00;;;25.90;49.80;;;;;;7705541;22;83471;-58
2022/11/12 09:54:07;;;;;;;83.82;42.42;;;26.00;49.80;;;;;;7703265;22;84431;-58
2022/11/12 09:57:26;;;;;;;80.40;41.85;;;26.10;49.80;;;;;;7706557;22;83032;-59
2022/11/12 10:00:45;;;;;;;81.32;41.80;;;26.20;50.00;;;;;;7708984;22;87249;-58
2022/11/12 10:04:04;;;;;;;70.63;38.30;;;26.20;49.70;;;;;;7711658;22;82833;-59
2022/11/12 10:07:23;;;;;;;73.60;37.70;;;26.30;49.60;;;;;;7704314;22;84784;-57
2022/11/12 10:10:42;;;;;;;62.97;33.55;;;26.40;49.40;;;;;;7709139;22;84019;-55
2022/11/12 10:14:01;;;;;;;61.97;33.65;;;26.60;49.30;;;;;;7708302;22;84475;-55
2022/11/12 10:17:20;;;;;;;53.42;30.40;;;26.70;49.10;;;;;;7709679;22;83099;-59
2022/11/12 10:20:39;;;;;;;55.45;29.02;;;26.80;48.80;;;;;;7709663;22;83639;-56
2022/11/12 10:23:58;;;;;;;46.10;24.80;;;26.90;48.50;;;;;;7709011;22;84156;-57
2022/11/12 10:27:17;;;;;;;40.22;21.45;;;26.90;47.40;;;;;;7713610;22;83255;-57
2022/11/12 10:30:36;;;;;;;41.40;21.70;;;26.90;46.70;;;;;;7711565;22;82823;-58
2022/11/12 10:33:55;;;;;;;40.55;19.27;;;26.80;45.80;;;;;;7707939;22;87252;-57
2022/11/12 10:37:14;;;;;;;29.02;17.02;;;26.80;45.90;;;;;;7711438;22;83605;-55
2022/11/12 10:40:33;;;;;;;32.35;16.00;;;26.80;45.20;;;;;;7717391;22;83354;-58
2022/11/12 10:43:52;;;;;;;26.67;14.93;;;26.80;44.40;;;;;;7713102;22;82940;-57
2022/11/12 10:47:11;;;;;;;21.10;13.23;;;26.70;43.70;;;;;;7715697;22;82925;-57
2022/11/12 10:50:30;;;;;;;20.67;12.38;;;26.70;42.90;;;;;;7711801;22;83127;-58
2022/11/12 10:53:49;;;;;;;19.15;11.15;;;26.70;43.20;;;;;;7713762;22;82878;-56
2022/11/12 10:57:08;;;;;;;19.77;11.82;;;26.70;43.00;;;;;;7712349;22;82945;-57
2022/11/12 11:00:27;;;;;;;17.08;10.38;;;26.70;42.70;;;;;;7709499;22;83042;-57
2022/11/12 11:03:46;;;;;;;14.45;9.07;;;26.70;42.40;;;;;;7712430;22;87208;-57
2022/11/12 11:07:06;;;;;;;16.20;9.18;;;26.70;42.30;;;;;;7720726;22;82608;-57
2022/11/12 11:10:24;;;;;;;16.35;8.32;;;26.70;42.00;;;;;;7712744;22;80634;-57
2022/11/12 11:13:43;;;;;;;15.85;7.70;;;26.60;41.70;;;;;;7713199;22;84670;-57
2022/11/12 11:17:06;;;;;;;11.98;7.72;;;26.70;41.60;;;;;;7712990;22;80068;-57
2022/11/12 11:20:25;;;;;;;12.43;7.13;;;26.70;41.30;;;;;;7712392;22;81232;-61
2022/11/12 11:23:44;;;;;;;12.48;7.35;;;26.70;41.40;;;;;;7712221;22;81095;-61
2022/11/12 11:27:03;;;;;;;16.60;7.93;;;26.60;41.40;;;;;;7712109;22;81318;-61
2022/11/12 11:30:22;;;;;;;9.20;6.22;;;26.70;41.30;;;;;;7713490;22;81230;-62
2022/11/12 11:44:24;;;;;;;10.57;6.00;;;26.80;41.40;;;;;;7679860;22;80138;-59
2022/11/12 11:47:43;;;;;;;12.88;6.40;;;26.80;41.40;;;;;;7680551;22;81292;-56
2022/11/12 11:51:02;;;;;;;9.82;5.88;;;26.80;41.30;;;;;;7678444;22;80526;-55
2022/11/12 11:54:21;;;;;;;10.00;5.85;;;26.80;41.20;;;;;;7681416;22;79928;-58
2022/11/12 11:57:40;;;;;;;9.77;6.10;;;26.80;41.30;;;;;;7679827;22;80084;-57
2022/11/12 12:00:59;;;;;;;9.48;5.50;;;26.80;41.20;;;;;;7679074;22;83402;-58
2022/11/12 12:04:19;;;;;;;11.93;5.45;;;26.70;41.20;;;;;;7679858;22;80453;-59
2022/11/12 12:07:37;;;;;;;12.73;6.72;;;26.80;40.90;;;;;;7682144;22;80454;-58
2022/11/12 12:10:56;;;;;;;9.77;5.70;;;26.80;41.20;;;;;;7677053;22;79951;-58
2022/11/12 12:14:15;;;;;;;10.18;5.68;;;26.70;40.90;;;;;;7679740;22;79990;-59
2022/11/12 12:17:34;;;;;;;9.27;5.53;;;26.70;40.90;;;;;;7678271;22;80038;-59
2022/11/12 12:20:53;;;;;;;8.70;5.00;;;26.70;40.70;;;;;;7673304;22;80281;-58
2022/11/12 12:24:12;;;;;;;8.30;5.38;;;26.70;41.00;;;;;;7670491;22;80575;-59
2022/11/12 12:27:31;;;;;;;12.10;5.82;;;26.70;40.90;;;;;;7677462;22;80616;-57
2022/11/12 12:30:50;;;;;;;10.07;6.18;;;26.70;40.90;;;;;;7675299;22;87270;-59
2022/11/12 12:34:09;;;;;;;10.63;6.30;;;26.60;40.90;;;;;;7679982;22;80004;-57
2022/11/12 12:37:28;;;;;;;9.68;5.65;;;26.60;40.80;;;;;;7680653;22;81523;-62
2022/11/12 12:40:48;;;;;;;12.13;6.22;;;26.60;41.00;;;;;;7679018;22;81901;-58
2022/11/12 12:44:07;;;;;;;10.65;6.03;;;26.60;41.00;;;;;;7678070;22;81164;-57
2022/11/12 12:47:26;;;;;;;10.68;5.72;;;26.60;41.40;;;;;;7680281;22;80345;-56
2022/11/12 12:50:45;;;;;;;16.75;6.07;;;26.60;42.20;;;;;;7679164;22;80780;-58
2022/11/12 12:54:04;;;;;;;15.20;6.25;;;26.60;42.40;;;;;;7673915;22;79983;-56
2022/11/12 12:57:23;;;;;;;8.02;5.30;;;26.70;42.50;;;;;;7673242;22;80033;-58
2022/11/12 13:00:42;;;;;;;14.27;5.72;;;26.80;42.10;;;;;;7672088;22;80337;-58
2022/11/12 13:04:07;;;;;;;7.43;5.20;;;27.00;41.80;;;;;;7671744;22;84445;-58
2022/11/12 13:07:26;;;;;;;13.98;5.95;;;27.10;41.60;;;;;;7673577;22;80694;-63
2022/11/12 13:10:46;;;;;;;8.57;5.80;;;27.10;41.20;;;;;;7673511;22;81411;-64
2022/11/12 13:14:05;;;;;;;9.73;6.25;;;27.10;41.00;;;;;;7674125;22;80769;-64
2022/11/12 13:17:24;;;;;;;12.52;6.50;;;27.20;40.70;;;;;;7676148;22;80239;-64
2022/11/12 13:20:43;;;;;;;12.00;6.78;;;27.30;40.50;;;;;;7680839;22;80363;-61
2022/11/12 13:24:05;;;;;;;15.57;6.35;;;27.30;40.40;;;;;;7679062;22;82458;-63
2022/11/12 13:27:24;;;;;;;10.70;6.32;;;27.40;40.20;;;;;;7679898;22;80067;-61
2022/11/12 13:30:43;;;;;;;11.60;6.35;;;27.60;39.90;;;;;;7678036;22;80214;-62
2022/11/12 13:34:02;;;;;;;10.93;6.97;;;27.70;40.00;;;;;;7678400;22;85021;-65
2022/11/12 13:37:21;;;;;;;11.40;7.25;;;27.90;39.80;;;;;;7676061;22;80069;-64
2022/11/12 13:40:40;;;;;;;13.70;7.35;;;28.30;39.00;;;;;;7681096;22;80085;-64
2022/11/12 13:43:59;;;;;;;9.27;7.13;;;28.70;38.20;;;;;;7713585;22;81521;-65
2022/11/12 13:47:18;;;;;;;12.15;7.43;;;28.80;37.90;;;;;;7715821;22;80237;-61
2022/11/12 13:50:37;;;;;;;12.00;7.82;;;28.60;38.10;;;;;;7717184;22;79966;-62
2022/11/12 13:53:56;;;;;;;11.40;7.07;;;28.80;36.60;;;;;;7718519;22;80106;-63
2022/11/12 13:57:15;;;;;;;12.70;7.57;;;28.80;36.50;;;;;;7716264;22;80274;-67
2022/11/12 14:00:34;;;;;;;17.42;9.00;;;27.70;37.40;;;;;;7695281;22;80865;-65
2022/11/12 14:03:54;;;;;;;13.25;8.63;;;27.10;37.50;;;;;;7710722;22;84398;-61
2022/11/12 14:07:13;;;;;;;11.25;7.13;;;26.70;37.90;;;;;;7710884;22;80116;-64
2022/11/12 14:10:32;;;;;;;11.82;7.20;;;26.90;38.60;;;;;;7712223;22;80294;-62
2022/11/12 14:13:51;;;;;;;15.15;6.95;;;27.00;38.20;;;;;;7712857;22;80324;-64
2022/11/12 14:17:10;;;;;;;12.70;7.07;;;26.90;38.20;;;;;;7711960;22;80399;-64
2022/11/12 14:20:30;;;;;;;16.35;7.65;;;26.90;38.30;;;;;;7712448;22;80742;-65
2022/11/12 14:23:49;;;;;;;13.15;6.72;;;26.70;37.90;;;;;;7712965;22;80138;-64
2022/11/12 14:27:08;;;;;;;14.05;7.90;;;26.50;39.10;;;;;;7689000;22;81589;-64
2022/11/12 14:30:30;;;;;;;12.63;6.75;;;26.40;39.10;;;;;;7711062;22;82052;-62
2022/11/12 14:33:49;;;;;;;13.05;6.55;;;26.10;39.20;;;;;;7709924;22;84537;-62
2022/11/12 14:37:09;;;;;;;11.32;6.57;;;25.90;39.80;;;;;;7702655;22;80976;-62
2022/11/12 14:40:27;;;;;;;11.05;6.38;;;25.60;40.10;;;;;;7707021;22;81901;-63
2022/11/12 14:43:46;;;;;;;12.25;7.00;;;25.40;40.60;;;;;;7694885;22;81077;-67
2022/11/12 14:47:06;;;;;;;11.38;6.43;;;25.20;40.90;;;;;;7697525;22;80013;-64
2022/11/12 14:50:25;;;;;;;12.30;6.57;;;25.20;41.10;;;;;;7701379;22;81338;-63
2022/11/12 14:53:43;;;;;;;13.90;6.80;;;25.00;41.00;;;;;;7712881;22;80055;-67
2022/11/12 14:57:03;;;;;;;14.82;9.05;;;24.70;41.20;;;;;;7712516;22;80459;-66
2022/11/12 15:00:22;;;;;;;19.33;7.60;;;24.70;41.60;;;;;;7713466;22;81109;-66
2022/11/12 15:03:41;;;;;;;36.63;20.35;;;24.60;41.80;;;;;;7719524;22;80429;-63
2022/11/12 15:06:59;;;;;;;72.97;38.88;;;24.60;42.10;;;;;;7711598;22;84458;-64
2022/11/12 15:10:19;;;;;;;102.30;61.17;;;24.70;42.60;;;;;;7709971;22;82756;-64
2022/11/12 15:13:38;;;;;;;125.28;76.13;;;24.70;42.70;;;;;;7704937;22;84414;-65
2022/11/12 15:16:59;;;;;;;147.70;92.82;;;24.80;42.80;;;;;;7714466;22;82599;-60
2022/11/12 15:20:18;;;;;;;166.15;98.18;;;24.80;43.20;;;;;;7714593;22;82997;-64
2022/11/12 15:23:37;;;;;;;170.10;102.55;;;24.80;43.10;;;;;;7709030;22;84133;-59
2022/11/12 15:26:56;;;;;;;169.85;95.07;;;24.80;43.30;;;;;;7700858;22;86861;-61
2022/11/12 15:30:15;;;;;;;197.35;105.18;;;24.90;43.30;;;;;;7707870;22;85569;-60
2022/11/12 15:33:34;;;;;;;208.60;116.78;;;24.90;43.40;;;;;;7708642;22;86796;-60
2022/11/12 15:36:53;;;;;;;259.15;132.20;;;24.90;43.50;;;;;;7711004;22;89522;-60
2022/11/12 15:40:14;;;;;;;246.20;129.90;;;24.90;43.50;;;;;;7710560;22;86689;-62
2022/11/12 15:43:33;;;;;;;289.80;153.73;;;24.90;43.50;;;;;;7711753;22;87006;-60
2022/11/12 15:46:52;;;;;;;269.70;145.80;;;24.90;43.40;;;;;;7702930;22;87095;-60
2022/11/12 15:50:11;;;;;;;217.95;117.10;;;24.90;43.70;;;;;;7685445;22;85303;-61
2022/11/12 15:53:30;;;;;;;184.35;96.70;;;24.80;43.80;;;;;;7689092;22;86828;-61
2022/11/12 15:56:49;;;;;;;154.52;81.15;;;24.80;43.90;;;;;;7689329;22;84905;-61
2022/11/12 16:00:08;;;;;;;121.80;64.75;;;24.70;43.90;;;;;;7687415;22;83728;-61
2022/11/12 16:03:27;;;;;;;108.25;55.25;;;24.70;44.00;;;;;;7690482;22;84374;-62
2022/11/12 16:06:46;;;;;;;95.07;47.92;;;24.70;44.00;;;;;;7691175;22;86916;-61
2022/11/12 16:10:06;;;;;;;79.82;42.40;;;24.70;44.30;;;;;;7687133;22;83546;-61
2022/11/12 16:13:25;;;;;;;73.90;38.85;;;24.70;44.40;;;;;;7692008;22;83643;-62
2022/11/12 16:16:44;;;;;;;65.38;34.45;;;24.60;44.10;;;;;;7696521;22;82871;-61
2022/11/12 16:20:03;;;;;;;54.35;29.58;;;24.70;44.30;;;;;;7689615;22;84347;-62
2022/11/12 16:23:22;;;;;;;48.40;26.20;;;24.60;44.10;;;;;;7692283;22;83883;-60
2022/11/12 16:26:41;;;;;;;51.60;26.70;;;24.60;44.00;;;;;;7700562;22;84713;-57
2022/11/12 16:30:00;;;;;;;46.65;23.08;;;24.60;44.40;;;;;;7712144;22;82995;-72
2022/11/12 16:33:19;;;;;;;41.13;21.27;;;24.50;44.30;;;;;;7700671;22;83208;-65
2022/11/12 16:36:38;;;;;;;41.60;19.75;;;24.50;44.40;;;;;;7714754;22;82767;-61
2022/11/12 16:39:57;;;;;;;39.30;20.75;;;24.50;44.70;;;;;;7709823;22;87471;-63
2022/11/12 16:43:16;;;;;;;33.80;17.83;;;24.50;44.60;;;;;;7711282;22;82990;-64
2022/11/12 16:46:38;;;;;;;37.33;18.25;;;24.50;44.60;;;;;;7714579;22;82812;-60
2022/11/12 16:49:57;;;;;;;31.50;16.70;;;24.50;44.60;;;;;;7714266;22;82917;-62
2022/11/12 16:53:15;;;;;;;31.08;17.48;;;24.50;44.60;;;;;;7715738;22;83926;-60
2022/11/12 16:56:35;;;;;;;31.95;16.90;;;24.40;44.50;;;;;;7714476;22;82942;-63
2022/11/12 16:59:54;;;;;;;35.10;16.67;;;24.40;44.50;;;;;;7708234;22;82693;-62
2022/11/12 17:03:14;;;;;;;33.20;15.77;;;24.40;44.50;;;;;;7709336;22;82896;-62
2022/11/12 17:06:35;;;;;;;33.45;15.32;;;24.40;44.50;;;;;;7706964;22;82558;-58
2022/11/12 17:09:54;;;;;;;35.25;15.82;;;24.40;44.50;;;;;;7704276;22;87297;-58
2022/11/12 17:13:13;;;;;;;31.33;14.90;;;24.40;44.60;;;;;;7708298;22;82847;-60
2022/11/12 17:16:32;;;;;;;31.33;14.00;;;24.30;44.50;;;;;;7708828;22;83242;-60
2022/11/12 17:19:51;;;;;;;25.45;13.65;;;24.30;44.60;;;;;;7709145;22;83972;-59
2022/11/12 17:23:10;;;;;;;33.53;14.10;;;24.30;45.10;;;;;;7707004;22;83324;-56
2022/11/12 17:26:29;;;;;;;27.33;13.15;;;24.30;44.60;;;;;;7708090;22;83229;-57